createdAt,value
2022-08-10T00:01:17.383Z,76.11880216714054
2022-08-10T00:04:21.463Z,75.3253944774824
2022-08-10T00:07:17.307Z,75.1369751196895
2022-08-10T00:11:16.778Z,75.2059325573669
2022-08-10T00:14:17.747Z,75.61729337230668
2022-08-10T00:17:16.391Z,76.05549296468419
2022-08-10T00:21:21.425Z,76.18917458842488
2022-08-10T00:24:22.928Z,76.72703716805071
2022-08-10T00:28:01.679Z,76.56901590800503
2022-08-10T00:31:16.666Z,75.65826514683953
2022-08-10T00:34:16.920Z,74.79065003578765
2022-08-10T00:37:18.576Z,73.61709314867329
2022-08-10T00:41:16.659Z,73.9146115677664
2022-08-10T00:44:17.242Z,74.297400225832
2022-08-10T00:47:35.920Z,73.31956627793073
2022-08-10T00:51:16.717Z,73.51339676870344
2022-08-10T00:54:23.984Z,73.9368825015815
2022-08-10T00:57:18.741Z,75.07004044535242
2022-08-10T01:02:11.098Z,75.95701460234669
2022-08-10T01:04:58.872Z,76.55615850754945
2022-08-10T01:07:27.387Z,76.41125800804384
2022-08-10T01:12:38.894Z,76.35057608076309
2022-08-10T01:14:25.803Z,75.91603717183446
2022-08-10T01:17:21.506Z,75.53141247431809
2022-08-10T01:22:05.908Z,75.90173397264951
2022-08-10T01:24:38.059Z,75.03131169199521
2022-08-10T01:27:27.369Z,74.59561509046009
2022-08-10T01:31:22.248Z,74.10863324157899
2022-08-10T01:34:23.294Z,74.71093705744612
2022-08-10T01:37:22.350Z,75.45697210000675
2022-08-10T01:41:21.727Z,75.50580776503371
2022-08-10T01:44:24.225Z,75.93638290981005
2022-08-10T01:51:21.211Z,77.01571493377838
2022-08-10T01:54:20.723Z,76.98081939914876
2022-08-10T01:57:17.811Z,77.82509070099945
2022-08-10T02:01:22.256Z,77.68927973945968
2022-08-10T02:04:19.960Z,77.97883894686105
2022-08-10T02:07:21.337Z,77.9948502124385
2022-08-10T02:11:17.467Z,78.59542378492029
2022-08-10T02:14:18.313Z,79.33231821538283
2022-08-10T02:17:57.089Z,79.20435814598673
2022-08-10T02:21:16.381Z,79.52011613687826
2022-08-10T02:24:17.627Z,78.5306375980858
2022-08-10T02:27:18.155Z,77.83622156337084
2022-08-10T02:31:22.317Z,76.89858027460606
2022-08-10T02:34:18.509Z,76.78795626983838
2022-08-10T02:37:19.278Z,77.36788894729222
2022-08-10T02:45:02.363Z,76.18406941744699
2022-08-10T02:47:24.544Z,75.94119984934675
2022-08-10T02:52:06.855Z,75.598444472738
2022-08-10T02:54:21.905Z,75.96488688465861
2022-08-10T02:57:21.171Z,76.27897407024372
2022-08-10T03:01:22.364Z,77.4511307642374
2022-08-10T03:04:56.043Z,78.7171909522694
2022-08-10T03:07:44.696Z,78.7323118285357
2022-08-10T03:12:35.506Z,79.67694453797601
2022-08-10T03:14:19.331Z,79.49307382779087
2022-08-10T03:17:19.088Z,79.60337097093034
2022-08-10T03:21:18.748Z,80.00472126594678
2022-08-10T03:24:30.450Z,79.52293034677876
2022-08-10T03:27:17.303Z,79.59729521148897
2022-08-10T03:31:17.305Z,79.98919703296194
2022-08-10T03:34:22.094Z,80.44364021600684
2022-08-10T03:37:17.400Z,81.03401998491144
2022-08-10T03:41:20.922Z,80.56101839957829
2022-08-10T03:44:20.641Z,81.20567930409135
2022-08-10T03:47:20.287Z,81.46146763731737
2022-08-10T03:51:17.817Z,80.25926734617882
2022-08-10T03:54:18.480Z,81.11910332569249
2022-08-10T03:57:17.616Z,81.37026499483419
2022-08-10T04:01:18.020Z,81.29367593030568
2022-08-10T04:04:23.265Z,81.4508552564073
2022-08-10T04:07:17.540Z,81.28309694195347
2022-08-10T04:11:16.666Z,80.84181879167751
2022-08-10T04:14:38.190Z,81.45709476697614
2022-08-10T04:17:16.874Z,81.39120472634447
2022-08-10T04:21:21.354Z,80.97860044925876
2022-08-10T04:24:27.000Z,79.96630767315243
2022-08-10T04:27:17.030Z,80.64841105475979
2022-08-10T04:31:21.652Z,80.25254771982426
2022-08-10T04:34:22.448Z,79.35831478360849
2022-08-10T04:37:21.479Z,79.48370465754765
2022-08-10T04:41:16.767Z,79.37264701706339
2022-08-10T04:44:16.548Z,79.9754991179581
2022-08-10T04:47:16.744Z,79.85741263596543
2022-08-10T04:51:18.715Z,80.29851910306175
2022-08-10T04:54:16.287Z,80.55548962981389
2022-08-10T04:57:16.241Z,81.03973220826501
2022-08-10T05:01:18.919Z,80.3974872585524
2022-08-10T05:04:37.816Z,80.16463408722592
2022-08-10T05:07:18.384Z,79.84314017711938
2022-08-10T05:11:24.020Z,79.4840426995881
2022-08-10T05:14:16.523Z,78.84960704199584
2022-08-10T05:17:16.447Z,78.79606070542222
2022-08-10T05:21:53.810Z,80.04108298430256
2022-08-10T05:24:16.686Z,81.14086663645112
2022-08-10T05:27:16.568Z,81.7233657438474
2022-08-10T05:31:18.938Z,82.0528227776991
2022-08-10T05:34:20.622Z,80.95403643866354
2022-08-10T05:38:11.628Z,81.23568720972688
2022-08-10T05:41:16.778Z,81.29075732802383
2022-08-10T05:44:16.876Z,80.25847830341512
2022-08-10T05:47:17.715Z,80.6518584678008
2022-08-10T05:51:17.247Z,82.13262209914069
2022-08-10T05:54:17.080Z,81.44784596849334
2022-08-10T05:57:19.436Z,80.17458128542442
2022-08-10T06:01:25.916Z,79.62682340188235
2022-08-10T06:04:23.829Z,79.87534428062118
2022-08-10T06:07:21.833Z,79.96025631328475
2022-08-10T06:12:28.159Z,79.99120096144412
2022-08-10T06:15:50.700Z,79.28298480443866
2022-08-10T06:17:18.284Z,78.92964390808834
2022-08-10T06:21:18.268Z,78.5359830910179
2022-08-10T06:24:18.128Z,77.66903726024381
2022-08-10T06:27:16.848Z,78.00534456349665
2022-08-10T06:31:18.338Z,79.05807696190456
2022-08-10T06:34:51.327Z,79.57204811431635
2022-08-10T06:37:26.329Z,78.18284146210979
2022-08-10T06:41:22.456Z,77.54768716826844
2022-08-10T06:44:31.572Z,77.7097116574947
2022-08-10T06:47:22.955Z,78.1885187927354
2022-08-10T06:51:21.821Z,78.3781869859264
2022-08-10T06:54:22.168Z,77.8028982352367
2022-08-10T06:57:18.973Z,77.20571620101795
2022-08-10T07:01:20.143Z,76.91914631582468
2022-08-10T07:04:32.426Z,77.30429752611286
2022-08-10T07:07:19.767Z,76.8720533516785
2022-08-10T07:11:18.698Z,75.87592544086696
2022-08-10T07:14:18.530Z,75.3018871080234
2022-08-10T07:17:20.793Z,75.16541313127536
2022-08-10T07:21:17.887Z,73.36421468959432
2022-08-10T07:24:16.701Z,73.42937327795484
2022-08-10T07:27:16.887Z,73.34124417383981
2022-08-10T07:31:31.107Z,73.34998900935446
2022-08-10T07:34:21.689Z,72.3579273953914
2022-08-10T07:37:19.269Z,71.93434297563768
2022-08-10T07:41:19.247Z,69.9074636364429
2022-08-10T07:44:18.418Z,69.50586705009786
2022-08-10T07:47:52.990Z,69.62211156472236
2022-08-10T07:51:19.412Z,68.35933349338092
2022-08-10T07:54:19.007Z,66.40392376543369
2022-08-10T07:57:30.816Z,66.92343505181691
2022-08-10T08:01:19.083Z,64.457245281564
2022-08-10T08:04:19.904Z,63.37834167241366
2022-08-10T08:07:21.260Z,64.19105761271241
2022-08-10T08:11:25.456Z,65.19146044869441
2022-08-10T08:14:18.469Z,64.95427268291733
2022-08-10T08:17:17.811Z,63.62022522478851
2022-08-10T08:24:10.317Z,63.85818718776266
2022-08-10T08:27:18.625Z,62.828161545645756
2022-08-10T08:31:18.203Z,59.651557570301485
2022-08-10T08:34:17.968Z,58.62326553987391
2022-08-10T08:38:28.748Z,58.70767528879371
2022-08-10T08:41:44.760Z,55.860261321306886
2022-08-10T08:44:43.164Z,55.56253954545934
2022-08-10T08:48:04.216Z,56.529903715045165
2022-08-10T08:52:07.802Z,56.82558351310926
2022-08-10T08:54:33.017Z,56.60296825653738
2022-08-10T08:57:50.316Z,55.85059479943211
2022-08-10T09:01:38.050Z,55.3665136338804
2022-08-10T09:04:46.208Z,55.69045821916379
2022-08-10T09:08:01.834Z,54.79832938167162
2022-08-10T09:11:29.988Z,51.0698197496753
2022-08-10T09:14:25.858Z,52.8443114592155
2022-08-10T09:17:25.068Z,51.54302417639818
2022-08-10T09:21:22.928Z,51.09314089732951
2022-08-10T09:24:26.468Z,50.39672986199348
2022-08-10T09:51:44.829Z,45.52302161830648
2022-08-10T09:54:27.428Z,45.96413765318401
2022-08-10T09:57:43.986Z,46.91634778328131
2022-08-10T10:21:54.694Z,41.33451437641001
2022-08-10T10:24:27.048Z,42.69514499649887
2022-08-10T10:27:25.900Z,44.40953312292126
2022-08-10T10:31:27.513Z,44.49914810762716
2022-08-10T10:34:34.683Z,43.49215716675994
2022-08-10T10:37:19.826Z,40.92591416610381
2022-08-10T10:41:30.522Z,41.710704009558995
2022-08-10T10:44:30.651Z,40.96047117530096
2022-08-10T10:47:33.443Z,40.38087622596083
2022-08-10T10:51:28.556Z,42.29525917032287
2022-08-10T10:54:31.670Z,41.03585908279001
2022-08-10T10:57:58.435Z,42.951635191515756
2022-08-10T11:01:34.101Z,42.42544811783867
2022-08-10T11:04:23.005Z,37.7652431215687
2022-08-10T11:07:28.461Z,41.03418584338808
2022-08-10T11:12:00.614Z,41.549070444868725
2022-08-10T11:14:29.384Z,40.37544353216347
2022-08-10T11:17:21.548Z,37.60546253124059
2022-08-10T11:21:31.514Z,39.18826436869168
2022-08-10T11:24:46.892Z,38.9971325719694
2022-08-10T11:27:24.413Z,39.61915054898542
2022-08-10T11:31:25.758Z,40.29480732529625
2022-08-10T11:34:46.978Z,37.799286077709354
2022-08-10T11:37:26.255Z,38.72459412102814
2022-08-10T12:11:25.456Z,33.730196720842045
2022-08-10T12:21:33.198Z,30.945419678542674
2022-08-10T12:31:34.437Z,34.562584957173414
2022-08-10T13:21:19.804Z,31.415319117271913
2022-08-10T13:31:19.501Z,28.773116678861747
2022-08-10T13:41:17.498Z,28.556799836569947
2022-08-10T13:51:17.989Z,31.43464573728887
2022-08-10T14:01:21.485Z,27.30764449079389
2022-08-10T14:11:18.525Z,30.452531131835915
2022-08-10T14:21:16.600Z,29.44151596407152
2022-08-10T14:31:22.058Z,31.46379247271337
2022-08-10T14:42:01.953Z,32.68167513348933
2022-08-10T14:51:25.005Z,35.63615121850308
2022-08-10T15:01:18.417Z,37.3181433486643
2022-08-10T15:12:15.253Z,35.78577729428603
2022-08-10T15:21:20.489Z,39.19092170074256
2022-08-10T15:25:02.417Z,38.955311255319714
2022-08-10T15:27:19.425Z,39.53666076479017
2022-08-10T15:31:20.091Z,39.30068519484519
2022-08-10T15:41:57.213Z,40.31791914744767
2022-08-10T15:44:17.370Z,40.02278163672697
2022-08-10T15:47:46.215Z,40.749573443605726
2022-08-10T15:51:23.117Z,40.89170549440904
2022-08-10T15:54:18.537Z,42.21216036436375
2022-08-10T15:57:19.777Z,38.13782303645588
2022-08-10T16:02:14.811Z,38.44568358816969
2022-08-10T16:04:21.208Z,38.858320097113975
2022-08-10T16:07:20.900Z,39.36610089865665
2022-08-10T16:11:22.165Z,39.861808468759996
2022-08-10T16:14:20.420Z,40.79873678131472
2022-08-10T16:17:18.739Z,40.98137316038442
2022-08-10T16:31:21.427Z,41.840984532915776
2022-08-10T16:34:19.526Z,40.87089794093486
2022-08-10T16:37:19.338Z,39.94213741603571
2022-08-10T16:41:59.606Z,39.595526826814435
2022-08-10T16:44:18.858Z,39.084027160296905
2022-08-10T16:47:17.980Z,38.09643099829754
2022-08-10T16:51:19.483Z,37.838403286771104
2022-08-10T16:54:26.793Z,39.15579942386538
2022-08-10T16:57:18.723Z,39.80317479944661
2022-08-10T17:01:21.967Z,40.760370836800725
2022-08-10T17:04:18.422Z,42.55628264187827
2022-08-10T17:07:19.172Z,43.002309810309825
2022-08-10T17:11:17.586Z,43.22522332463643
2022-08-10T17:14:22.683Z,43.13792945774219
2022-08-10T17:17:20.809Z,43.42566603433494
2022-08-10T17:21:21.844Z,43.5839317276622
2022-08-10T17:24:18.267Z,45.10997861189554
2022-08-10T17:28:04.732Z,46.51761617594273
2022-08-10T17:31:51.622Z,46.96887615050827
2022-08-10T17:34:20.223Z,47.19103779592815
2022-08-10T17:37:21.332Z,47.37227107726019
2022-08-10T17:41:23.160Z,47.49444285461789
2022-08-10T17:44:17.588Z,47.705412481691766
2022-08-10T17:47:18.442Z,48.4167925191526
2022-08-10T17:51:17.646Z,48.608995663581666
2022-08-10T17:54:28.607Z,48.71517187666712
2022-08-10T17:57:20.421Z,48.85666469553348
2022-08-10T18:01:41.210Z,48.709003092204355
2022-08-10T18:04:20.108Z,48.958867901273095
2022-08-10T18:07:20.132Z,48.532149655884254
2022-08-10T18:11:18.719Z,49.07838011080397
2022-08-10T18:14:20.286Z,48.8038070252907
2022-08-10T18:17:20.938Z,49.083058368162924
2022-08-10T18:21:20.016Z,49.817108208216894
2022-08-10T18:24:19.097Z,50.05032505689922
2022-08-10T18:27:18.993Z,50.20169952109748
2022-08-10T18:31:19.607Z,50.793648131881376
2022-08-10T18:34:19.610Z,51.77089143230871
2022-08-10T18:37:20.332Z,51.627138433435064
2022-08-10T18:41:20.120Z,51.933625302582016
2022-08-10T18:44:26.846Z,52.90009916589681
2022-08-10T18:47:25.678Z,52.804632551088936
2022-08-10T18:51:30.403Z,53.29242268177976
2022-08-10T18:54:44.380Z,53.76938776096397
2022-08-10T18:57:40.032Z,54.015995971303404
2022-08-10T19:01:41.498Z,53.1286564813799
2022-08-10T19:41:32.524Z,58.42816117810015
2022-08-10T19:51:24.213Z,57.18954695757497
2022-08-10T19:54:29.464Z,56.39850442344111
2022-08-10T19:57:34.629Z,56.2026755683015
2022-08-10T20:01:16.951Z,55.615178494731516
2022-08-10T20:04:22.230Z,55.597109791740664
2022-08-10T20:07:33.397Z,55.51955438730424
2022-08-10T20:11:44.729Z,56.307746914908556
2022-08-10T20:14:22.825Z,57.41470045121337
2022-08-10T20:17:26.795Z,57.7383415439115
2022-08-10T20:21:23.823Z,57.66534171077914
2022-08-10T20:24:25.724Z,57.066744640642646
2022-08-10T20:31:22.037Z,57.32889148301046
2022-08-10T20:34:21.487Z,57.60073700300178
2022-08-10T20:37:46.893Z,58.069430661499375
2022-08-10T20:41:24.415Z,58.93058165123497
2022-08-10T20:44:31.899Z,59.781718361478866
2022-08-10T20:47:28.078Z,59.97704189964378
2022-08-10T20:51:22.058Z,59.34882911666838
2022-08-10T20:54:17.874Z,58.97504049804415
2022-08-10T20:57:54.977Z,58.69457786710436
2022-08-10T21:02:01.593Z,59.062645993014065
2022-08-10T21:04:38.758Z,58.419227792271975
2022-08-10T21:08:00.695Z,58.69696425184081
2022-08-10T21:11:32.367Z,58.8273812324603
2022-08-10T21:14:28.785Z,59.0516729748476
2022-08-10T21:17:37.391Z,59.11527920927162
2022-08-10T21:21:41.561Z,59.471923399965846
2022-08-10T21:24:23.543Z,59.45596320770633
2022-08-10T22:51:21.849Z,60.427164954526745
2022-08-10T23:02:07.731Z,60.346967930272356
2022-08-10T23:04:24.261Z,61.46483608916865
2022-08-10T23:07:22.603Z,61.989550708674095
2022-08-10T23:11:21.499Z,62.92511197684781
2022-08-10T23:14:18.307Z,63.343376810649396
2022-08-10T23:21:18.526Z,63.768249438294724
2022-08-10T23:24:24.593Z,63.65740048965002
2022-08-10T23:27:38.570Z,63.97761056561503
2022-08-10T23:32:00.817Z,64.24311296222574
2022-08-10T23:34:22.217Z,65.28589680475801
2022-08-10T23:37:18.001Z,65.64581612017933
2022-08-10T23:41:26.815Z,64.2402995190843
2022-08-10T23:44:19.773Z,63.68972440733899
2022-08-10T23:47:21.116Z,63.36602503250516
2022-08-10T23:51:17.853Z,63.21917369596596
2022-08-10T23:54:19.971Z,63.26766317290415
2022-08-10T23:57:19.284Z,63.33017444456405
